sensor_id;sensor_type;location;lat;lon;timestamp;temperature;humidity
67165;SHT31;54093;50.014;19.984;2024-03-22T00:06:10;9.71;59.86
67165;SHT31;54093;50.014;19.984;2024-03-22T00:15:31;9.74;60.09
67165;SHT31;54093;50.014;19.984;2024-03-22T00:24:52;9.73;60.07
67165;SHT31;54093;50.014;19.984;2024-03-22T00:34:13;9.77;59.51
67165;SHT31;54093;50.014;19.984;2024-03-22T00:43:34;9.74;59.88
67165;SHT31;54093;50.014;19.984;2024-03-22T00:52:55;9.57;60.98
67165;SHT31;54093;50.014;19.984;2024-03-22T01:02:17;9.56;62.10
67165;SHT31;54093;50.014;19.984;2024-03-22T01:11:38;9.60;62.74
67165;SHT31;54093;50.014;19.984;2024-03-22T01:20:59;9.50;63.86
67165;SHT31;54093;50.014;19.984;2024-03-22T01:30:20;9.54;65.13
67165;SHT31;54093;50.014;19.984;2024-03-22T01:39:41;9.63;66.22
67165;SHT31;54093;50.014;19.984;2024-03-22T01:49:02;9.67;66.63
67165;SHT31;54093;50.014;19.984;2024-03-22T01:58:24;9.76;67.00
67165;SHT31;54093;50.014;19.984;2024-03-22T02:07:45;9.78;67.22
67165;SHT31;54093;50.014;19.984;2024-03-22T02:17:06;9.80;67.54
67165;SHT31;54093;50.014;19.984;2024-03-22T02:26:27;9.84;67.87
67165;SHT31;54093;50.014;19.984;2024-03-22T02:35:49;9.83;68.45
67165;SHT31;54093;50.014;19.984;2024-03-22T02:45:10;9.78;69.14
67165;SHT31;54093;50.014;19.984;2024-03-22T02:54:31;9.87;69.49
67165;SHT31;54093;50.014;19.984;2024-03-22T03:03:52;9.77;70.37
67165;SHT31;54093;50.014;19.984;2024-03-22T03:13:13;9.85;70.70
67165;SHT31;54093;50.014;19.984;2024-03-22T03:22:34;9.93;71.12
67165;SHT31;54093;50.014;19.984;2024-03-22T03:31:55;9.91;71.39
67165;SHT31;54093;50.014;19.984;2024-03-22T03:41:17;9.81;72.01
67165;SHT31;54093;50.014;19.984;2024-03-22T03:50:38;9.85;72.44
67165;SHT31;54093;50.014;19.984;2024-03-22T03:59:59;9.83;73.00
67165;SHT31;54093;50.014;19.984;2024-03-22T04:09:20;9.88;73.46
67165;SHT31;54093;50.014;19.984;2024-03-22T04:18:41;9.99;73.42
67165;SHT31;54093;50.014;19.984;2024-03-22T04:28:02;10.02;73.86
67165;SHT31;54093;50.014;19.984;2024-03-22T04:37:24;10.04;74.06
67165;SHT31;54093;50.014;19.984;2024-03-22T04:46:45;10.06;74.55
67165;SHT31;54093;50.014;19.984;2024-03-22T04:56:06;10.01;74.77
67165;SHT31;54093;50.014;19.984;2024-03-22T05:05:28;9.99;75.09
67165;SHT31;54093;50.014;19.984;2024-03-22T05:14:49;9.99;75.66
67165;SHT31;54093;50.014;19.984;2024-03-22T05:24:10;9.98;75.83
67165;SHT31;54093;50.014;19.984;2024-03-22T05:33:31;10.05;76.08
67165;SHT31;54093;50.014;19.984;2024-03-22T05:42:53;10.06;76.67
67165;SHT31;54093;50.014;19.984;2024-03-22T05:52:14;10.14;76.44
67165;SHT31;54093;50.014;19.984;2024-03-22T06:01:35;10.21;76.49
67165;SHT31;54093;50.014;19.984;2024-03-22T06:10:56;10.24;76.61
67165;SHT31;54093;50.014;19.984;2024-03-22T06:20:17;10.31;76.71
67165;SHT31;54093;50.014;19.984;2024-03-22T06:29:38;10.39;76.63
67165;SHT31;54093;50.014;19.984;2024-03-22T06:39:01;10.52;76.74
67165;SHT31;54093;50.014;19.984;2024-03-22T06:48:27;10.63;76.25
67165;SHT31;54093;50.014;19.984;2024-03-22T06:57:49;10.69;76.38
67165;SHT31;54093;50.014;19.984;2024-03-22T07:07:10;10.76;76.45
67165;SHT31;54093;50.014;19.984;2024-03-22T07:16:31;10.87;75.74
67165;SHT31;54093;50.014;19.984;2024-03-22T07:25:52;10.91;75.47
67165;SHT31;54093;50.014;19.984;2024-03-22T07:35:13;10.96;75.21
67165;SHT31;54093;50.014;19.984;2024-03-22T07:44:34;11.00;74.55
67165;SHT31;54093;50.014;19.984;2024-03-22T07:53:55;11.00;74.55
67165;SHT31;54093;50.014;19.984;2024-03-22T08:03:16;10.85;75.09
67165;SHT31;54093;50.014;19.984;2024-03-22T08:12:38;10.84;75.28
67165;SHT31;54093;50.014;19.984;2024-03-22T08:21:59;10.73;75.60
67165;SHT31;54093;50.014;19.984;2024-03-22T08:31:20;10.70;75.84
67165;SHT31;54093;50.014;19.984;2024-03-22T08:40:46;10.77;75.27
67165;SHT31;54093;50.014;19.984;2024-03-22T08:50:07;10.76;74.68
67165;SHT31;54093;50.014;19.984;2024-03-22T08:59:28;10.76;74.11
67165;SHT31;54093;50.014;19.984;2024-03-22T09:08:49;10.73;73.99
67165;SHT31;54093;50.014;19.984;2024-03-22T09:18:10;10.84;72.47
67165;SHT31;54093;50.014;19.984;2024-03-22T09:27:33;11.07;70.77
67165;SHT31;54093;50.014;19.984;2024-03-22T09:36:54;11.11;69.88
67165;SHT31;54093;50.014;19.984;2024-03-22T09:46:15;11.28;69.70
67165;SHT31;54093;50.014;19.984;2024-03-22T09:55:36;11.27;69.54
67165;SHT31;54093;50.014;19.984;2024-03-22T10:04:58;11.22;70.30
67165;SHT31;54093;50.014;19.984;2024-03-22T10:14:19;11.28;69.30
67165;SHT31;54093;50.014;19.984;2024-03-22T10:23:40;11.15;70.24
67165;SHT31;54093;50.014;19.984;2024-03-22T10:33:02;11.22;68.24
67165;SHT31;54093;50.014;19.984;2024-03-22T10:42:24;11.13;68.73
67165;SHT31;54093;50.014;19.984;2024-03-22T10:51:52;11.27;68.32
67165;SHT31;54093;50.014;19.984;2024-03-22T11:01:22;11.24;68.90
67165;SHT31;54093;50.014;19.984;2024-03-22T11:10:43;11.34;69.47
67165;SHT31;54093;50.014;19.984;2024-03-22T11:20:05;11.61;68.59
67165;SHT31;54093;50.014;19.984;2024-03-22T11:29:26;11.69;68.78
67165;SHT31;54093;50.014;19.984;2024-03-22T11:38:47;11.91;67.62
67165;SHT31;54093;50.014;19.984;2024-03-22T11:48:13;12.03;68.26
67165;SHT31;54093;50.014;19.984;2024-03-22T11:57:34;12.13;67.49
67165;SHT31;54093;50.014;19.984;2024-03-22T12:06:55;12.17;67.06
67165;SHT31;54093;50.014;19.984;2024-03-22T12:16:18;12.33;67.43
67165;SHT31;54093;50.014;19.984;2024-03-22T12:25:39;12.79;65.76
67165;SHT31;54093;50.014;19.984;2024-03-22T12:35:00;12.99;64.77
67165;SHT31;54093;50.014;19.984;2024-03-22T12:44:21;12.88;64.99
67165;SHT31;54093;50.014;19.984;2024-03-22T12:53:42;12.84;65.59
67165;SHT31;54093;50.014;19.984;2024-03-22T13:03:04;12.85;65.15
67165;SHT31;54093;50.014;19.984;2024-03-22T13:12:29;12.86;65.46
67165;SHT31;54093;50.014;19.984;2024-03-22T13:21:55;12.93;64.83
67165;SHT31;54093;50.014;19.984;2024-03-22T13:31:16;12.79;65.54
67165;SHT31;54093;50.014;19.984;2024-03-22T13:40:37;12.79;64.16
67165;SHT31;54093;50.014;19.984;2024-03-22T13:49:58;12.67;64.62
67165;SHT31;54093;50.014;19.984;2024-03-22T13:59:18;12.44;65.53
67165;SHT31;54093;50.014;19.984;2024-03-22T14:08:40;12.44;65.61
67165;SHT31;54093;50.014;19.984;2024-03-22T14:18:01;12.45;65.41
67165;SHT31;54093;50.014;19.984;2024-03-22T14:27:22;12.40;65.71
67165;SHT31;54093;50.014;19.984;2024-03-22T14:36:43;12.45;64.52
67165;SHT31;54093;50.014;19.984;2024-03-22T14:46:04;12.44;64.74
67165;SHT31;54093;50.014;19.984;2024-03-22T14:55:25;12.33;65.55
67165;SHT31;54093;50.014;19.984;2024-03-22T15:04:46;12.28;65.73
67165;SHT31;54093;50.014;19.984;2024-03-22T15:14:07;12.14;66.15
67165;SHT31;54093;50.014;19.984;2024-03-22T15:23:28;12.14;66.17
67165;SHT31;54093;50.014;19.984;2024-03-22T15:32:49;12.21;65.81
67165;SHT31;54093;50.014;19.984;2024-03-22T15:42:10;12.12;66.28
67165;SHT31;54093;50.014;19.984;2024-03-22T15:51:31;12.01;66.49
67165;SHT31;54093;50.014;19.984;2024-03-22T16:00:52;11.91;66.48
67165;SHT31;54093;50.014;19.984;2024-03-22T16:10:13;11.91;66.59
67165;SHT31;54093;50.014;19.984;2024-03-22T16:19:34;11.80;67.11
67165;SHT31;54093;50.014;19.984;2024-03-22T16:28:56;11.78;67.18
67165;SHT31;54093;50.014;19.984;2024-03-22T16:38:17;11.72;67.40
67165;SHT31;54093;50.014;19.984;2024-03-22T16:47:38;11.69;67.55
67165;SHT31;54093;50.014;19.984;2024-03-22T16:56:59;11.76;67.19
67165;SHT31;54093;50.014;19.984;2024-03-22T17:06:20;11.57;68.05
67165;SHT31;54093;50.014;19.984;2024-03-22T17:15:41;11.51;68.24
67165;SHT31;54093;50.014;19.984;2024-03-22T17:25:02;11.42;68.53
67165;SHT31;54093;50.014;19.984;2024-03-22T17:34:23;11.43;68.91
67165;SHT31;54093;50.014;19.984;2024-03-22T17:43:47;11.31;69.30
67165;SHT31;54093;50.014;19.984;2024-03-22T17:53:12;11.20;70.41
67165;SHT31;54093;50.014;19.984;2024-03-22T18:02:33;11.14;71.00
67165;SHT31;54093;50.014;19.984;2024-03-22T18:11:54;11.06;71.79
67165;SHT31;54093;50.014;19.984;2024-03-22T18:21:15;10.97;72.84
67165;SHT31;54093;50.014;19.984;2024-03-22T18:30:37;10.90;73.35
67165;SHT31;54093;50.014;19.984;2024-03-22T18:39:58;10.87;73.43
67165;SHT31;54093;50.014;19.984;2024-03-22T18:49:19;10.83;73.45
67165;SHT31;54093;50.014;19.984;2024-03-22T18:58:39;10.79;74.02
67165;SHT31;54093;50.014;19.984;2024-03-22T19:08:00;10.79;73.37
67165;SHT31;54093;50.014;19.984;2024-03-22T19:17:24;10.74;73.95
67165;SHT31;54093;50.014;19.984;2024-03-22T19:26:45;10.73;74.10
67165;SHT31;54093;50.014;19.984;2024-03-22T19:36:06;10.69;74.11
67165;SHT31;54093;50.014;19.984;2024-03-22T19:45:27;10.67;74.25
67165;SHT31;54093;50.014;19.984;2024-03-22T19:54:48;10.64;73.30
67165;SHT31;54093;50.014;19.984;2024-03-22T20:04:09;10.67;73.33
67165;SHT31;54093;50.014;19.984;2024-03-22T20:13:30;10.70;73.64
67165;SHT31;54093;50.014;19.984;2024-03-22T20:22:52;10.67;73.83
67165;SHT31;54093;50.014;19.984;2024-03-22T20:32:13;10.70;73.63
